sensor_id;sensor_type;location;lat;lon;timestamp;pressure;altitude;pressure_sealevel;temperature;humidity
53506;BME280;39388;50.936;6.848;2022-11-15T00:01:20;100341.59;;;10.32;85.47
53506;BME280;39388;50.936;6.848;2022-11-15T00:03:51;100357.84;;;10.40;86.24
53506;BME280;39388;50.936;6.848;2022-11-15T00:06:21;100333.09;;;10.24;86.20
53506;BME280;39388;50.936;6.848;2022-11-15T00:08:52;100333.03;;;10.27;86.08
53506;BME280;39388;50.936;6.848;2022-11-15T00:11:23;100394.56;;;10.61;86.16
53506;BME280;39388;50.936;6.848;2022-11-15T00:13:57;100351.81;;;10.40;86.43
53506;BME280;39388;50.936;6.848;2022-11-15T00:16:28;100354.41;;;10.38;86.75
53506;BME280;39388;50.936;6.848;2022-11-15T00:18:58;100357.81;;;10.42;86.80
53506;BME280;39388;50.936;6.848;2022-11-15T00:21:32;100339.00;;;10.34;86.90
53506;BME280;39388;50.936;6.848;2022-11-15T00:24:02;100295.41;;;10.09;86.96
53506;BME280;39388;50.936;6.848;2022-11-15T00:26:33;100332.13;;;10.34;87.04
53506;BME280;39388;50.936;6.848;2022-11-15T00:29:03;100362.88;;;10.53;86.78
53506;BME280;39388;50.936;6.848;2022-11-15T00:31:34;100339.78;;;10.42;86.73
53506;BME280;39388;50.936;6.848;2022-11-15T00:34:04;100334.66;;;10.40;87.11
53506;BME280;39388;50.936;6.848;2022-11-15T00:36:34;100349.91;;;10.59;86.95
53506;BME280;39388;50.936;6.848;2022-11-15T00:39:05;100326.84;;;10.48;87.17
53506;BME280;39388;50.936;6.848;2022-11-15T00:41:36;100298.66;;;10.30;87.32
53506;BME280;39388;50.936;6.848;2022-11-15T00:44:06;100354.16;;;10.63;87.10
53506;BME280;39388;50.936;6.848;2022-11-15T00:46:36;100359.22;;;10.71;87.43
53506;BME280;39388;50.936;6.848;2022-11-15T00:49:07;100306.22;;;10.45;87.12
53506;BME280;39388;50.936;6.848;2022-11-15T00:51:37;100361.66;;;10.83;87.10
53506;BME280;39388;50.936;6.848;2022-11-15T00:54:11;100350.59;;;10.75;87.60
53506;BME280;39388;50.936;6.848;2022-11-15T00:56:41;100309.56;;;10.53;87.15
53506;BME280;39388;50.936;6.848;2022-11-15T00:59:12;100314.72;;;10.53;87.60
53506;BME280;39388;50.936;6.848;2022-11-15T01:01:42;100377.81;;;10.98;87.53
53506;BME280;39388;50.936;6.848;2022-11-15T01:04:13;100299.28;;;10.52;87.55
53506;BME280;39388;50.936;6.848;2022-11-15T01:06:44;100309.47;;;10.61;87.30
53506;BME280;39388;50.936;6.848;2022-11-15T01:09:14;100347.94;;;10.81;87.73
53506;BME280;39388;50.936;6.848;2022-11-15T01:11:44;100338.63;;;10.69;87.72
53506;BME280;39388;50.936;6.848;2022-11-15T01:14:15;100339.53;;;10.65;87.81
53506;BME280;39388;50.936;6.848;2022-11-15T01:16:45;100273.75;;;10.29;88.10
53506;BME280;39388;50.936;6.848;2022-11-15T01:19:16;100348.00;;;10.75;88.35
53506;BME280;39388;50.936;6.848;2022-11-15T01:21:49;100327.53;;;10.61;88.40
53506;BME280;39388;50.936;6.848;2022-11-15T01:24:20;100300.22;;;10.46;88.40
53506;BME280;39388;50.936;6.848;2022-11-15T01:26:50;100279.66;;;10.40;88.32
53506;BME280;39388;50.936;6.848;2022-11-15T01:29:21;100337.66;;;10.77;88.51
53506;BME280;39388;50.936;6.848;2022-11-15T01:31:53;100347.88;;;10.86;88.64
53506;BME280;39388;50.936;6.848;2022-11-15T01:34:23;100279.56;;;10.48;88.58
53506;BME280;39388;50.936;6.848;2022-11-15T01:36:54;100321.34;;;10.75;88.41
53506;BME280;39388;50.936;6.848;2022-11-15T01:39:24;100326.41;;;10.85;88.67
53506;BME280;39388;50.936;6.848;2022-11-15T01:41:55;100331.53;;;10.88;88.42
53506;BME280;39388;50.936;6.848;2022-11-15T01:47:15;100349.16;;;11.21;88.85
53506;BME280;39388;50.936;6.848;2022-11-15T01:50:00;100293.66;;;10.89;88.43
53506;BME280;39388;50.936;6.848;2022-11-15T01:52:33;100308.16;;;11.01;89.06
53506;BME280;39388;50.936;6.848;2022-11-15T01:55:22;100308.06;;;11.06;88.70
53506;BME280;39388;50.936;6.848;2022-11-15T01:57:56;100310.50;;;11.16;88.91
53506;BME280;39388;50.936;6.848;2022-11-15T02:00:29;100272.81;;;11.05;88.98
53506;BME280;39388;50.936;6.848;2022-11-15T02:03:01;100319.72;;;11.34;88.96
53506;BME280;39388;50.936;6.848;2022-11-15T02:05:32;100327.31;;;11.45;88.76
53506;BME280;39388;50.936;6.848;2022-11-15T02:08:03;100294.91;;;11.26;89.05
53506;BME280;39388;50.936;6.848;2022-11-15T02:10:34;100304.16;;;11.39;89.32
53506;BME280;39388;50.936;6.848;2022-11-15T02:13:04;100289.66;;;11.32;89.33
53506;BME280;39388;50.936;6.848;2022-11-15T02:15:41;100251.13;;;11.20;89.17
53506;BME280;39388;50.936;6.848;2022-11-15T02:18:34;100238.28;;;11.16;89.52
53506;BME280;39388;50.936;6.848;2022-11-15T02:21:42;100273.97;;;11.43;89.61
53506;BME280;39388;50.936;6.848;2022-11-15T02:26:50;100299.53;;;11.61;89.22
53506;BME280;39388;50.936;6.848;2022-11-15T02:32:35;100241.53;;;11.28;89.54
53506;BME280;39388;50.936;6.848;2022-11-15T02:35:14;100301.16;;;11.67;89.60
53506;BME280;39388;50.936;6.848;2022-11-15T02:43:12;100269.53;;;11.53;89.52
53506;BME280;39388;50.936;6.848;2022-11-15T02:46:08;100301.91;;;11.74;89.78
53506;BME280;39388;50.936;6.848;2022-11-15T02:48:41;100214.09;;;11.21;88.96
53506;BME280;39388;50.936;6.848;2022-11-15T02:51:13;100238.72;;;11.42;89.38
53506;BME280;39388;50.936;6.848;2022-11-15T02:53:44;100196.03;;;11.21;89.38
53506;BME280;39388;50.936;6.848;2022-11-15T02:56:15;100231.78;;;11.45;89.33
53506;BME280;39388;50.936;6.848;2022-11-15T03:01:36;100280.31;;;11.79;89.80
53506;BME280;39388;50.936;6.848;2022-11-15T03:06:59;100198.47;;;11.30;89.86
53506;BME280;39388;50.936;6.848;2022-11-15T03:12:33;100277.69;;;11.83;89.83
53506;BME280;39388;50.936;6.848;2022-11-15T03:15:15;100283.63;;;11.88;89.71
53506;BME280;39388;50.936;6.848;2022-11-15T03:17:53;100256.28;;;11.73;89.86
53506;BME280;39388;50.936;6.848;2022-11-15T03:20:26;100250.38;;;11.68;89.88
53506;BME280;39388;50.936;6.848;2022-11-15T03:23:04;100241.00;;;11.62;89.60
53506;BME280;39388;50.936;6.848;2022-11-15T03:25:40;100228.09;;;11.60;89.73
53506;BME280;39388;50.936;6.848;2022-11-15T03:28:19;100205.09;;;11.46;89.91
53506;BME280;39388;50.936;6.848;2022-11-15T03:30:54;100200.81;;;11.45;89.99
53506;BME280;39388;50.936;6.848;2022-11-15T03:33:26;100201.66;;;11.46;89.93
53506;BME280;39388;50.936;6.848;2022-11-15T03:35:57;100256.97;;;11.86;89.95
53506;BME280;39388;50.936;6.848;2022-11-15T03:38:30;100205.84;;;11.53;90.10
53506;BME280;39388;50.936;6.848;2022-11-15T03:41:05;100262.91;;;11.91;89.92
53506;BME280;39388;50.936;6.848;2022-11-15T03:46:25;100271.41;;;11.98;90.03
53506;BME280;39388;50.936;6.848;2022-11-15T03:49:27;100205.72;;;11.59;89.95
53506;BME280;39388;50.936;6.848;2022-11-15T03:52:00;100171.59;;;11.43;90.07
53506;BME280;39388;50.936;6.848;2022-11-15T03:54:34;100220.94;;;11.76;89.64
53506;BME280;39388;50.936;6.848;2022-11-15T03:57:05;100212.38;;;11.74;90.02
53506;BME280;39388;50.936;6.848;2022-11-15T03:59:35;100182.53;;;11.56;90.19
53506;BME280;39388;50.936;6.848;2022-11-15T04:02:06;100231.97;;;11.88;90.01
53506;BME280;39388;50.936;6.848;2022-11-15T04:04:36;100192.63;;;11.70;89.96
53506;BME280;39388;50.936;6.848;2022-11-15T04:07:07;100155.94;;;11.53;89.77
53506;BME280;39388;50.936;6.848;2022-11-15T04:09:37;100225.75;;;11.98;89.97
53506;BME280;39388;50.936;6.848;2022-11-15T04:12:32;100183.91;;;11.76;89.94
53506;BME280;39388;50.936;6.848;2022-11-15T04:15:06;100197.47;;;11.90;90.28
53506;BME280;39388;50.936;6.848;2022-11-15T04:17:45;100236.63;;;12.16;89.82
53506;BME280;39388;50.936;6.848;2022-11-15T04:20:21;100199.94;;;11.97;89.74
53506;BME280;39388;50.936;6.848;2022-11-15T04:23:16;100208.44;;;12.02;89.67
53506;BME280;39388;50.936;6.848;2022-11-15T04:26:13;100228.09;;;12.12;89.71
53506;BME280;39388;50.936;6.848;2022-11-15T04:28:45;100217.03;;;12.04;89.72
53506;BME280;39388;50.936;6.848;2022-11-15T04:31:34;100180.38;;;11.83;90.00
53506;BME280;39388;50.936;6.848;2022-11-15T04:34:04;100184.69;;;11.83;89.74
53506;BME280;39388;50.936;6.848;2022-11-15T04:36:38;100143.88;;;11.53;90.01
53506;BME280;39388;50.936;6.848;2022-11-15T04:43:00;100196.63;;;11.88;89.83
53506;BME280;39388;50.936;6.848;2022-11-15T04:45:39;100238.38;;;12.14;89.76
53506;BME280;39388;50.936;6.848;2022-11-15T04:48:39;100202.53;;;11.95;89.75
53506;BME280;39388;50.936;6.848;2022-11-15T04:58:52;100194.97;;;11.86;89.86
53506;BME280;39388;50.936;6.848;2022-11-15T05:05:02;100175.41;;;11.71;89.18
53506;BME280;39388;50.936;6.848;2022-11-15T05:15:12;100164.31;;;11.66;89.50
53506;BME280;39388;50.936;6.848;2022-11-15T05:35:41;100251.25;;;12.15;89.42
53506;BME280;39388;50.936;6.848;2022-11-15T05:38:12;100257.34;;;12.13;89.68
53506;BME280;39388;50.936;6.848;2022-11-15T05:40:42;100254.81;;;12.09;89.57
53506;BME280;39388;50.936;6.848;2022-11-15T05:43:13;100246.38;;;12.01;89.74
53506;BME280;39388;50.936;6.848;2022-11-15T05:45:43;100259.28;;;12.01;90.10
53506;BME280;39388;50.936;6.848;2022-11-15T05:48:14;100247.34;;;11.96;90.18
53506;BME280;39388;50.936;6.848;2022-11-15T05:50:46;100250.00;;;11.91;90.21
53506;BME280;39388;50.936;6.848;2022-11-15T05:53:19;100244.94;;;11.85;90.44
53506;BME280;39388;50.936;6.848;2022-11-15T05:55:51;100242.44;;;11.78;90.33
53506;BME280;39388;50.936;6.848;2022-11-15T05:58:22;100235.72;;;11.68;90.82
53506;BME280;39388;50.936;6.848;2022-11-15T06:00:53;100241.88;;;11.61;90.94
53506;BME280;39388;50.936;6.848;2022-11-15T06:03:24;100247.88;;;11.61;90.88
53506;BME280;39388;50.936;6.848;2022-11-15T06:05:56;100244.59;;;11.53;91.34
53506;BME280;39388;50.936;6.848;2022-11-15T06:08:27;100256.63;;;11.54;90.89
53506;BME280;39388;50.936;6.848;2022-11-15T06:11:03;100247.28;;;11.45;91.28
53506;BME280;39388;50.936;6.848;2022-11-15T06:13:34;100267.91;;;11.47;91.60
53506;BME280;39388;50.936;6.848;2022-11-15T06:16:05;100267.09;;;11.43;91.34
53506;BME280;39388;50.936;6.848;2022-11-15T06:18:36;100268.00;;;11.41;91.33
53506;BME280;39388;50.936;6.848;2022-11-15T06:21:07;100253.56;;;11.29;91.29
53506;BME280;39388;50.936;6.848;2022-11-15T06:23:37;100258.72;;;11.27;91.44
53506;BME280;39388;50.936;6.848;2022-11-15T06:26:07;100269.00;;;11.30;91.65
53506;BME280;39388;50.936;6.848;2022-11-15T06:28:37;100265.66;;;11.24;91.72
53506;BME280;39388;50.936;6.848;2022-11-15T06:31:10;100282.00;;;11.26;91.50
53506;BME280;39388;50.936;6.848;2022-11-15T06:33:43;100266.63;;;11.18;92.12
53506;BME280;39388;50.936;6.848;2022-11-15T06:36:14;100274.31;;;11.21;91.88
53506;BME280;39388;50.936;6.848;2022-11-15T06:38:46;100277.84;;;11.15;91.77
53506;BME280;39388;50.936;6.848;2022-11-15T06:41:16;100265.06;;;11.08;91.49
53506;BME280;39388;50.936;6.848;2022-11-15T06:43:47;100291.63;;;11.14;91.81
53506;BME280;39388;50.936;6.848;2022-11-15T06:46:18;100283.03;;;11.12;91.65
53506;BME280;39388;50.936;6.848;2022-11-15T06:48:51;100295.09;;;11.12;91.49
53506;BME280;39388;50.936;6.848;2022-11-15T06:51:21;100283.16;;;11.05;91.85
53506;BME280;39388;50.936;6.848;2022-11-15T06:53:51;100299.47;;;11.07;91.66
53506;BME280;39388;50.936;6.848;2022-11-15T06:56:22;100304.63;;;11.07;91.87
53506;BME280;39388;50.936;6.848;2022-11-15T06:58:52;100309.81;;;11.03;91.70
53506;BME280;39388;50.936;6.848;2022-11-15T07:01:22;100308.09;;;11.02;91.37
53506;BME280;39388;50.936;6.848;2022-11-15T07:03:53;100307.25;;;11.05;91.36
53506;BME280;39388;50.936;6.848;2022-11-15T07:06:23;100308.97;;;11.03;91.26
53506;BME280;39388;50.936;6.848;2022-11-15T07:08:54;100303.84;;;11.00;91.57
53506;BME280;39388;50.936;6.848;2022-11-15T07:11:24;100315.88;;;11.01;91.06
53506;BME280;39388;50.936;6.848;2022-11-15T07:13:54;100323.59;;;11.04;90.90
53506;BME280;39388;50.936;6.848;2022-11-15T07:16:25;100322.72;;;11.05;90.86
53506;BME280;39388;50.936;6.848;2022-11-15T07:18:55;100315.88;;;10.99;90.94
53506;BME280;39388;50.936;6.848;2022-11-15T07:21:25;100332.16;;;11.05;90.73
53506;BME280;39388;50.936;6.848;2022-11-15T07:23:56;100325.34;;;11.02;90.40
53506;BME280;39388;50.936;6.848;2022-11-15T07:26:26;100336.50;;;11.04;90.06
53506;BME280;39388;50.936;6.848;2022-11-15T07:28:56;100343.28;;;11.08;90.26
53506;BME280;39388;50.936;6.848;2022-11-15T07:31:27;100345.88;;;11.08;90.18
53506;BME280;39388;50.936;6.848;2022-11-15T07:33:57;100342.41;;;11.11;90.38
53506;BME280;39388;50.936;6.848;2022-11-15T07:36:28;100334.72;;;11.06;90.14
53506;BME280;39388;50.936;6.848;2022-11-15T07:38:58;100348.38;;;11.13;89.79
53506;BME280;39388;50.936;6.848;2022-11-15T07:41:28;100345.78;;;11.16;89.74
53506;BME280;39388;50.936;6.848;2022-11-15T07:43:59;100350.91;;;11.19;89.23
53506;BME280;39388;50.936;6.848;2022-11-15T07:46:31;100346.63;;;11.20;89.24
53506;BME280;39388;50.936;6.848;2022-11-15T07:49:01;100361.13;;;11.27;88.90
53506;BME280;39388;50.936;6.848;2022-11-15T07:51:31;100354.22;;;11.29;89.24
53506;BME280;39388;50.936;6.848;2022-11-15T07:54:02;100361.88;;;11.33;88.82
53506;BME280;39388;50.936;6.848;2022-11-15T07:56:32;100359.31;;;11.33;88.71
53506;BME280;39388;50.936;6.848;2022-11-15T07:59:03;100349.84;;;11.34;88.65
53506;BME280;39388;50.936;6.848;2022-11-15T08:01:33;100356.66;;;11.40;88.64
53506;BME280;39388;50.936;6.848;2022-11-15T08:04:03;100347.97;;;11.44;88.00
53506;BME280;39388;50.936;6.848;2022-11-15T08:06:34;100350.53;;;11.47;88.29
53506;BME280;39388;50.936;6.848;2022-11-15T08:09:04;100350.53;;;11.47;87.84
53506;BME280;39388;50.936;6.848;2022-11-15T08:11:34;100338.47;;;11.46;87.86
53506;BME280;39388;50.936;6.848;2022-11-15T08:14:05;100344.44;;;11.49;87.87
53506;BME280;39388;50.936;6.848;2022-11-15T08:16:35;100344.44;;;11.51;87.59
53506;BME280;39388;50.936;6.848;2022-11-15T08:19:06;100343.56;;;11.52;87.17
53506;BME280;39388;50.936;6.848;2022-11-15T08:21:36;100343.53;;;11.54;87.44
53506;BME280;39388;50.936;6.848;2022-11-15T08:24:09;100345.19;;;11.58;87.18
53506;BME280;39388;50.936;6.848;2022-11-15T08:26:40;100346.00;;;11.61;87.14
53506;BME280;39388;50.936;6.848;2022-11-15T08:29:10;100345.13;;;11.62;86.69
53506;BME280;39388;50.936;6.848;2022-11-15T08:31:40;100342.50;;;11.66;86.38
53506;BME280;39388;50.936;6.848;2022-11-15T08:34:11;100339.00;;;11.70;86.61
53506;BME280;39388;50.936;6.848;2022-11-15T08:36:41;100335.50;;;11.72;86.42
53506;BME280;39388;50.936;6.848;2022-11-15T08:39:12;100338.06;;;11.74;86.35
53506;BME280;39388;50.936;6.848;2022-11-15T08:41:42;100336.25;;;11.81;85.72
53506;BME280;39388;50.936;6.848;2022-11-15T08:44:14;100330.19;;;11.85;86.05
53506;BME280;39388;50.936;6.848;2022-11-15T08:46:48;100325.81;;;11.88;86.21
53506;BME280;39388;50.936;6.848;2022-11-15T08:49:18;100323.97;;;11.95;85.48
53506;BME280;39388;50.936;6.848;2022-11-15T08:51:48;100309.31;;;11.97;85.72
53506;BME280;39388;50.936;6.848;2022-11-15T08:54:19;100306.59;;;12.05;85.50
53506;BME280;39388;50.936;6.848;2022-11-15T08:56:49;100305.66;;;12.09;85.48
53506;BME280;39388;50.936;6.848;2022-11-15T08:59:20;100308.16;;;12.14;85.22
53506;BME280;39388;50.936;6.848;2022-11-15T09:01:50;100312.41;;;12.18;85.07
53506;BME280;39388;50.936;6.848;2022-11-15T09:04:20;100308.84;;;12.22;84.61
53506;BME280;39388;50.936;6.848;2022-11-15T09:06:51;100307.09;;;12.24;84.71
53506;BME280;39388;50.936;6.848;2022-11-15T09:09:21;100313.94;;;12.28;84.43
53506;BME280;39388;50.936;6.848;2022-11-15T09:11:51;100303.59;;;12.28;83.94
53506;BME280;39388;50.936;6.848;2022-11-15T09:14:22;100271.03;;;12.18;83.63
53506;BME280;39388;50.936;6.848;2022-11-15T09:16:52;100298.19;;;12.40;83.31
53506;BME280;39388;50.936;6.848;2022-11-15T09:19:23;100292.91;;;12.45;83.16
53506;BME280;39388;50.936;6.848;2022-11-15T09:21:53;100294.50;;;12.52;82.56
53506;BME280;39388;50.936;6.848;2022-11-15T09:24:24;100300.38;;;12.62;82.29
53506;BME280;39388;50.936;6.848;2022-11-15T09:26:54;100296.81;;;12.66;81.64
53506;BME280;39388;50.936;6.848;2022-11-15T09:29:25;100304.47;;;12.71;81.10
53506;BME280;39388;50.936;6.848;2022-11-15T09:31:55;100298.34;;;12.75;80.93
53506;BME280;39388;50.936;6.848;2022-11-15T09:34:26;100297.41;;;12.79;80.81
53506;BME280;39388;50.936;6.848;2022-11-15T09:36:56;100278.44;;;12.80;80.22
53506;BME280;39388;50.936;6.848;2022-11-15T09:39:27;100280.03;;;12.86;79.86
53506;BME280;39388;50.936;6.848;2022-11-15T09:50:50;100264.00;;;13.09;78.66
53506;BME280;39388;50.936;6.848;2022-11-15T09:56:03;100254.19;;;13.22;77.91
53506;BME280;39388;50.936;6.848;2022-11-15T10:01:22;100239.13;;;13.41;77.28
53506;BME280;39388;50.936;6.848;2022-11-15T10:03:58;100229.47;;;13.48;77.08
53506;BME280;39388;50.936;6.848;2022-11-15T10:06:31;100222.47;;;13.52;76.45
53506;BME280;39388;50.936;6.848;2022-11-15T10:09:27;100218.81;;;13.60;76.06
53506;BME280;39388;50.936;6.848;2022-11-15T10:12:00;100218.56;;;13.70;75.81
53506;BME280;39388;50.936;6.848;2022-11-15T10:14:31;100218.47;;;13.73;74.92
53506;BME280;39388;50.936;6.848;2022-11-15T10:17:18;100225.25;;;13.78;74.33
53506;BME280;39388;50.936;6.848;2022-11-15T10:22:49;100201.59;;;13.91;73.09
53506;BME280;39388;50.936;6.848;2022-11-15T10:27:54;100203.91;;;14.00;71.91
53506;BME280;39388;50.936;6.848;2022-11-15T10:30:39;100206.44;;;14.03;71.24
53506;BME280;39388;50.936;6.848;2022-11-15T10:33:34;100194.22;;;14.08;70.23
53506;BME280;39388;50.936;6.848;2022-11-15T10:36:16;100209.75;;;14.08;68.90
53506;BME280;39388;50.936;6.848;2022-11-15T10:41:32;100194.84;;;14.17;67.68
53506;BME280;39388;50.936;6.848;2022-11-15T10:46:40;100189.50;;;14.23;66.96
53506;BME280;39388;50.936;6.848;2022-11-15T10:49:36;100185.94;;;14.26;66.61
53506;BME280;39388;50.936;6.848;2022-11-15T10:52:18;100180.75;;;14.26;66.22
53506;BME280;39388;50.936;6.848;2022-11-15T10:55:21;100185.00;;;14.28;65.70
53506;BME280;39388;50.936;6.848;2022-11-15T10:57:55;100180.53;;;14.33;65.64
53506;BME280;39388;50.936;6.848;2022-11-15T11:00:37;100178.69;;;14.37;65.06
53506;BME280;39388;50.936;6.848;2022-11-15T11:03:31;100164.75;;;14.41;64.38
53506;BME280;39388;50.936;6.848;2022-11-15T11:06:05;100162.97;;;14.43;64.71
53506;BME280;39388;50.936;6.848;2022-11-15T11:08:36;100163.88;;;14.42;64.28
53506;BME280;39388;50.936;6.848;2022-11-15T11:11:07;100165.41;;;14.48;64.11
53506;BME280;39388;50.936;6.848;2022-11-15T11:13:39;100162.66;;;14.54;63.73
53506;BME280;39388;50.936;6.848;2022-11-15T11:16:42;100147.97;;;14.53;62.88
53506;BME280;39388;50.936;6.848;2022-11-15T11:25:44;100142.72;;;14.56;62.75
53506;BME280;39388;50.936;6.848;2022-11-15T11:36:51;100125.00;;;14.69;63.19
53506;BME280;39388;50.936;6.848;2022-11-15T11:48:40;100113.09;;;14.90;62.94
53506;BME280;39388;50.936;6.848;2022-11-15T11:51:24;100125.78;;;14.99;62.79
53506;BME280;39388;50.936;6.848;2022-11-15T11:56:44;100121.19;;;15.08;62.74
53506;BME280;39388;50.936;6.848;2022-11-15T11:59:39;100114.16;;;15.11;62.56
53506;BME280;39388;50.936;6.848;2022-11-15T12:02:17;100105.38;;;15.15;62.89
53506;BME280;39388;50.936;6.848;2022-11-15T12:04:51;100096.44;;;15.23;62.77
53506;BME280;39388;50.936;6.848;2022-11-15T12:07:25;100089.47;;;15.25;63.00
53506;BME280;39388;50.936;6.848;2022-11-15T12:09:58;100077.97;;;15.32;63.14
53506;BME280;39388;50.936;6.848;2022-11-15T12:13:05;100078.81;;;15.33;62.55
53506;BME280;39388;50.936;6.848;2022-11-15T12:15:43;100075.31;;;15.34;62.87
53506;BME280;39388;50.936;6.848;2022-11-15T12:18:16;100071.00;;;15.33;62.88
53506;BME280;39388;50.936;6.848;2022-11-15T12:21:13;100065.88;;;15.31;62.65
53506;BME280;39388;50.936;6.848;2022-11-15T12:23:52;100054.69;;;15.29;62.58
53506;BME280;39388;50.936;6.848;2022-11-15T12:26:27;100055.25;;;15.37;62.66
53506;BME280;39388;50.936;6.848;2022-11-15T12:29:05;100057.75;;;15.40;62.89
53506;BME280;39388;50.936;6.848;2022-11-15T12:31:42;100051.66;;;15.41;62.36
53506;BME280;39388;50.936;6.848;2022-11-15T12:36:51;100041.78;;;15.27;62.79
53506;BME280;39388;50.936;6.848;2022-11-15T12:42:41;100031.59;;;15.21;63.05
53506;BME280;39388;50.936;6.848;2022-11-15T12:45:39;100023.00;;;15.19;62.83
53506;BME280;39388;50.936;6.848;2022-11-15T12:58:58;99998.00;;;15.17;63.02
53506;BME280;39388;50.936;6.848;2022-11-15T13:06:52;99988.53;;;15.14;63.94
53506;BME280;39388;50.936;6.848;2022-11-15T13:12:10;99982.16;;;15.24;63.79
53506;BME280;39388;50.936;6.848;2022-11-15T13:14:54;99970.84;;;15.25;63.66
53506;BME280;39388;50.936;6.848;2022-11-15T13:17:34;99968.00;;;15.32;63.71
53506;BME280;39388;50.936;6.848;2022-11-15T13:30:55;99939.63;;;15.27;63.79
53506;BME280;39388;50.936;6.848;2022-11-15T13:33:34;99944.13;;;15.22;63.97
53506;BME280;39388;50.936;6.848;2022-11-15T13:36:09;99939.91;;;15.19;64.06
53506;BME280;39388;50.936;6.848;2022-11-15T13:38:43;99932.34;;;15.13;64.15
53506;BME280;39388;50.936;6.848;2022-11-15T13:41:20;99930.66;;;15.12;64.48
53506;BME280;39388;50.936;6.848;2022-11-15T13:43:52;99926.41;;;15.09;64.56
53506;BME280;39388;50.936;6.848;2022-11-15T13:46:28;99922.97;;;15.09;64.68
53506;BME280;39388;50.936;6.848;2022-11-15T13:49:01;99916.91;;;15.08;64.74
53506;BME280;39388;50.936;6.848;2022-11-15T13:57:02;99910.66;;;15.14;64.91
53506;BME280;39388;50.936;6.848;2022-11-15T13:59:45;99913.09;;;15.19;65.05
53506;BME280;39388;50.936;6.848;2022-11-15T14:02:34;99901.03;;;15.18;65.12
53506;BME280;39388;50.936;6.848;2022-11-15T14:05:16;99904.50;;;15.17;65.44
53506;BME280;39388;50.936;6.848;2022-11-15T14:07:54;99898.59;;;15.13;65.74
53506;BME280;39388;50.936;6.848;2022-11-15T14:10:32;99899.44;;;15.13;66.05
53506;BME280;39388;50.936;6.848;2022-11-15T14:13:04;99887.44;;;15.09;66.16
53506;BME280;39388;50.936;6.848;2022-11-15T14:15:36;99873.06;;;15.00;66.50
53506;BME280;39388;50.936;6.848;2022-11-15T14:21:17;99856.09;;;14.92;66.92
53506;BME280;39388;50.936;6.848;2022-11-15T14:23:47;99859.53;;;14.92;67.17
53506;BME280;39388;50.936;6.848;2022-11-15T14:26:45;99849.22;;;14.91;67.46
53506;BME280;39388;50.936;6.848;2022-11-15T14:29:28;99852.75;;;14.88;67.59
53506;BME280;39388;50.936;6.848;2022-11-15T14:32:20;99853.66;;;14.87;67.71
53506;BME280;39388;50.936;6.848;2022-11-15T14:34:55;99852.81;;;14.87;67.65
53506;BME280;39388;50.936;6.848;2022-11-15T14:37:31;99844.31;;;14.83;67.50
53506;BME280;39388;50.936;6.848;2022-11-15T14:40:06;99839.22;;;14.80;67.77
53506;BME280;39388;50.936;6.848;2022-11-15T14:42:36;99841.56;;;14.86;67.80
53506;BME280;39388;50.936;6.848;2022-11-15T14:45:33;99843.28;;;14.87;67.99
53506;BME280;39388;50.936;6.848;2022-11-15T14:48:04;99841.53;;;14.88;67.92
53506;BME280;39388;50.936;6.848;2022-11-15T14:50:35;99829.56;;;14.83;67.82
53506;BME280;39388;50.936;6.848;2022-11-15T14:53:05;99826.19;;;14.81;68.23
53506;BME280;39388;50.936;6.848;2022-11-15T14:55:36;99815.88;;;14.78;68.34
53506;BME280;39388;50.936;6.848;2022-11-15T14:58:07;99815.88;;;14.78;68.45
53506;BME280;39388;50.936;6.848;2022-11-15T15:00:39;99815.03;;;14.78;68.59
53506;BME280;39388;50.936;6.848;2022-11-15T15:03:10;99806.53;;;14.74;68.25
53506;BME280;39388;50.936;6.848;2022-11-15T15:05:42;99785.16;;;14.67;68.85
53506;BME280;39388;50.936;6.848;2022-11-15T15:08:16;99785.88;;;14.71;68.65
53506;BME280;39388;50.936;6.848;2022-11-15T15:10:46;99790.16;;;14.72;68.67
53506;BME280;39388;50.936;6.848;2022-11-15T15:13:21;99782.59;;;14.66;69.01
53506;BME280;39388;50.936;6.848;2022-11-15T15:15:52;99778.19;;;14.68;68.99
53506;BME280;39388;50.936;6.848;2022-11-15T15:18:22;99775.84;;;14.62;69.19
53506;BME280;39388;50.936;6.848;2022-11-15T15:20:58;99776.75;;;14.61;69.05
53506;BME280;39388;50.936;6.848;2022-11-15T15:23:37;99766.59;;;14.54;69.46
53506;BME280;39388;50.936;6.848;2022-11-15T15:26:08;99767.44;;;14.55;69.43
53506;BME280;39388;50.936;6.848;2022-11-15T15:28:39;99770.03;;;14.55;69.39
53506;BME280;39388;50.936;6.848;2022-11-15T15:31:10;99768.38;;;14.52;69.54
53506;BME280;39388;50.936;6.848;2022-11-15T15:33:40;99759.81;;;14.50;69.66
53506;BME280;39388;50.936;6.848;2022-11-15T15:36:12;99764.97;;;14.52;70.07
53506;BME280;39388;50.936;6.848;2022-11-15T15:38:42;99749.44;;;14.50;69.89
53506;BME280;39388;50.936;6.848;2022-11-15T15:41:15;99753.72;;;14.51;69.72
53506;BME280;39388;50.936;6.848;2022-11-15T15:43:45;99753.84;;;14.48;69.78
53506;BME280;39388;50.936;6.848;2022-11-15T15:46:18;99758.06;;;14.51;69.75
53506;BME280;39388;50.936;6.848;2022-11-15T15:48:48;99753.84;;;14.48;70.01
53506;BME280;39388;50.936;6.848;2022-11-15T15:51:19;99745.22;;;14.48;69.89
53506;BME280;39388;50.936;6.848;2022-11-15T15:53:49;99738.34;;;14.47;70.09
53506;BME280;39388;50.936;6.848;2022-11-15T15:56:21;99737.53;;;14.45;70.12
53506;BME280;39388;50.936;6.848;2022-11-15T15:58:51;99726.25;;;14.46;70.13
53506;BME280;39388;50.936;6.848;2022-11-15T16:01:22;99720.28;;;14.44;70.06
53506;BME280;39388;50.936;6.848;2022-11-15T16:03:53;99715.22;;;14.41;70.51
53506;BME280;39388;50.936;6.848;2022-11-15T16:06:37;99720.34;;;14.42;70.28
53506;BME280;39388;50.936;6.848;2022-11-15T16:09:15;99722.84;;;14.45;70.36
53506;BME280;39388;50.936;6.848;2022-11-15T16:11:46;99721.94;;;14.46;70.29